Orel 3 — UYBY — position and weather

sailwx.info

Track history (hours):
 
Tides and Currents Weather Stations Pressure Air Temp Water Temp Dewpoint Dewpoint Depression Visibility Wind Speed Wind Dir Waves Ship Positions

Orel 3

Last reported at 2018-Jun-24 22:38 UTC. Time now 2018-Jun-25 01:40 UTC.
Position N 44°39' E 029°24'.

Length 108 m; draft 3.4 m.

Type: Cargo ship. MMSI: 272057000.

Date/timePositionNaut miles runAvg speedWind from/ knotsBaromVisibWave heightAir tempDewpointWater temp
2018-Jun-24 22:38N 44°39' E 029°24'3 8.0
2018-Jun-24 22:16N 44°38' E 029°21'2 7.8
2018-Jun-24 22:00N 44°36' E 029°18'4 7.6
2018-Jun-24 21:30N 44°34' E 029°15'4 7.8
2018-Jun-24 21:00N 44°30' E 029°12'4 8.0
2018-Jun-24 20:30N 44°27' E 029°09'4 8.4
2018-Jun-24 20:00N 44°23' E 029°08'4 8.4
2018-Jun-24 19:30N 44°19' E 029°06'4 8.5
2018-Jun-24 19:00N 44°15' E 029°04'4 8.3
2018-Jun-24 18:30N 44°11' E 029°03'4 8.1
2018-Jun-24 18:00N 44°07' E 029°01'4 8.0
2018-Jun-24 17:30N 44°03' E 028°59'4 8.1
2018-Jun-24 17:00N 43°59' E 028°58'4 8.0
2018-Jun-24 16:30N 43°55' E 028°56'4 7.9
2018-Jun-24 16:00N 43°51' E 028°55'4 8.0
2018-Jun-24 15:30N 43°47' E 028°53'4 7.8
2018-Jun-24 14:59N 43°44' E 028°52'  
2018-Jun-22 00:19N 40°01' E 025°49'11 8.6
2018-Jun-21 23:04N 40°06' E 025°36'1 8.7
2018-Jun-21 23:00N 40°06' E 025°36'4 8.1
2018-Jun-21 22:30N 40°08' E 025°31'4 7.5
2018-Jun-21 22:00N 40°10' E 025°27'4 7.2
2018-Jun-21 21:29N 40°12' E 025°23'3 7.0
2018-Jun-21 21:00N 40°13' E 025°19'3 6.9
2018-Jun-21 20:30N 40°15' E 025°15'4 7.1
2018-Jun-21 20:00N 40°17' E 025°11'4 7.5
2018-Jun-21 19:30N 40°19' E 025°07'4 7.7
2018-Jun-21 19:00N 40°21' E 025°02'5 8.0
2018-Jun-21 18:23N 40°23' E 024°57'3 8.0
2018-Jun-21 18:00N 40°25' E 024°53'4 8.3
2018-Jun-21 17:30N 40°27' E 024°49'4 8.1
2018-Jun-21 17:00N 40°29' E 024°44'4 7.8
2018-Jun-21 16:30N 40°31' E 024°39'4 7.6
2018-Jun-21 16:00N 40°33' E 024°35'4 7.8
2018-Jun-21 15:30N 40°34' E 024°31'4 7.4
2018-Jun-21 15:00N 40°38' E 024°28'4 7.3
2018-Jun-21 14:30N 40°41' E 024°25'3 7.0
2018-Jun-21 14:00N 40°44' E 024°25'4 7.4
2018-Jun-21 13:30N 40°48' E 024°26'4 7.4
2018-Jun-21 13:00N 40°51' E 024°28'3 6.5
2018-Jun-21 12:30N 40°54' E 024°29'2 4.4
2018-Jun-21 12:00N 40°57' E 024°29'0 0.4
2018-Jun-21 11:30N 40°57' E 024°28'0 0.0
2018-Jun-21 11:00N 40°57' E 024°28'0 0.0
2018-Jun-21 10:30N 40°57' E 024°28'0 0.0
2018-Jun-21 10:00N 40°57' E 024°28'0 0.0
2018-Jun-21 09:30N 40°57' E 024°28'0 0.0
2018-Jun-21 09:00N 40°57' E 024°28'0 0.0
2018-Jun-21 08:30N 40°57' E 024°28'0 0.0
2018-Jun-21 08:00N 40°57' E 024°28'0 0.0
2018-Jun-21 07:30N 40°57' E 024°28'0 0.0
2018-Jun-21 07:00N 40°57' E 024°28'0 0.0
2018-Jun-21 06:30N 40°57' E 024°28'0 0.0
2018-Jun-21 06:00N 40°57' E 024°28'0 0.0
2018-Jun-21 05:30N 40°57' E 024°28'0 0.0
2018-Jun-21 05:00N 40°57' E 024°28'0 0.0
2018-Jun-21 04:30N 40°57' E 024°28'0 0.0
2018-Jun-21 04:00N 40°57' E 024°28'0 0.0
2018-Jun-21 03:30N 40°57' E 024°28'0 0.0
2018-Jun-21 03:00N 40°57' E 024°28'0 0.0
2018-Jun-21 02:30N 40°57' E 024°28'0 0.0
2018-Jun-21 02:00N 40°57' E 024°28'0 0.0
2018-Jun-21 01:29N 40°57' E 024°28'0 0.0
2018-Jun-21 01:00N 40°57' E 024°28'0 0.0
2018-Jun-21 00:30N 40°57' E 024°28'0 0.0
2018-Jun-21 00:00N 40°57' E 024°28'0 0.0
2018-Jun-20 23:30N 40°57' E 024°28'0 0.0
2018-Jun-20 23:00N 40°57' E 024°28'0 0.0
2018-Jun-20 22:29N 40°57' E 024°28'0 0.0
2018-Jun-20 22:00N 40°57' E 024°28'0 0.0
2018-Jun-20 21:30N 40°57' E 024°28'0 0.0
2018-Jun-20 21:00N 40°57' E 024°28'0 0.0
2018-Jun-20 20:30N 40°57' E 024°28'0 0.0
2018-Jun-20 20:00N 40°57' E 024°28'0 0.0
2018-Jun-20 19:30N 40°57' E 024°28'0 0.0
2018-Jun-20 19:00N 40°57' E 024°28'0 0.0
2018-Jun-20 18:30N 40°57' E 024°28'0 0.0
2018-Jun-20 18:00N 40°57' E 024°28'0 0.0
2018-Jun-20 17:30N 40°57' E 024°28'0 0.0
2018-Jun-20 17:00N 40°57' E 024°28'0 0.0
2018-Jun-20 16:29N 40°57' E 024°28'0 0.0
2018-Jun-20 16:00N 40°57' E 024°28'0 0.0
2018-Jun-20 15:30N 40°57' E 024°28'0 0.0
2018-Jun-20 15:00N 40°57' E 024°28'0 0.0
2018-Jun-20 14:30N 40°57' E 024°28'0 0.0
2018-Jun-20 14:00N 40°57' E 024°28'0 0.0
2018-Jun-20 13:30N 40°57' E 024°28'0 0.0
2018-Jun-20 13:00N 40°57' E 024°28'0 0.0
2018-Jun-20 12:30N 40°57' E 024°28'0 0.0
2018-Jun-20 12:00N 40°57' E 024°28'0 0.0
2018-Jun-20 11:30N 40°57' E 024°28'0 0.0
2018-Jun-20 11:00N 40°57' E 024°28'0 0.0
2018-Jun-20 10:30N 40°57' E 024°28'0 0.0
2018-Jun-20 10:00N 40°57' E 024°28'0 0.0
2018-Jun-20 09:30N 40°57' E 024°28'0 0.0
2018-Jun-20 09:00N 40°57' E 024°28'0 0.0
2018-Jun-20 08:30N 40°57' E 024°28'0 0.0
2018-Jun-20 08:00N 40°57' E 024°28'0 0.0
2018-Jun-20 07:30N 40°57' E 024°28'0 0.0
2018-Jun-20 07:00N 40°57' E 024°28'0 0.0
2018-Jun-20 06:30N 40°57' E 024°28'0 0.0
2018-Jun-20 06:00N 40°57' E 024°28'0 0.0
2018-Jun-20 05:30N 40°57' E 024°28'0 0.0
2018-Jun-20 05:00N 40°57' E 024°28'0 0.0
2018-Jun-20 04:30N 40°57' E 024°28'0 0.0
2018-Jun-20 04:00N 40°57' E 024°28'0 0.0
2018-Jun-20 03:30N 40°57' E 024°28'0 0.0
2018-Jun-20 03:00N 40°57' E 024°28'0 0.0
2018-Jun-20 02:30N 40°57' E 024°28'0 0.0
2018-Jun-20 02:00N 40°57' E 024°28'0 0.0
2018-Jun-20 01:30N 40°57' E 024°28'0 0.0
2018-Jun-20 01:00N 40°57' E 024°28'0 0.0
2018-Jun-20 00:30N 40°57' E 024°28'0 0.0
2018-Jun-20 00:00N 40°57' E 024°28'0 0.0
2018-Jun-19 23:30N 40°57' E 024°28'0 0.0
2018-Jun-19 23:00N 40°57' E 024°28'0 0.0
2018-Jun-19 22:30N 40°57' E 024°28'0 0.0
2018-Jun-19 22:00N 40°57' E 024°28'0 0.0
2018-Jun-19 21:30N 40°57' E 024°28'0 0.0
2018-Jun-19 21:00N 40°57' E 024°28'0 0.0
2018-Jun-19 20:30N 40°57' E 024°28'0 0.0
2018-Jun-19 20:00N 40°57' E 024°28'0 0.0
2018-Jun-19 19:30N 40°57' E 024°28'0 0.0
2018-Jun-19 19:00N 40°57' E 024°28'0 0.0
2018-Jun-19 18:30N 40°57' E 024°28'0 0.0
2018-Jun-19 18:00N 40°57' E 024°28'0 0.0
2018-Jun-19 17:30N 40°57' E 024°28'0 0.0
2018-Jun-19 17:00N 40°57' E 024°28'0 0.0
2018-Jun-19 16:30N 40°57' E 024°28'0 0.0
2018-Jun-19 16:00N 40°57' E 024°28'0 0.0
2018-Jun-19 15:30N 40°57' E 024°28'0 0.0
2018-Jun-19 15:00N 40°57' E 024°28'0 0.0
2018-Jun-19 14:30N 40°57' E 024°28'0 0.0
2018-Jun-19 14:00N 40°57' E 024°28'0 0.0
2018-Jun-19 13:30N 40°57' E 024°28'0 0.0
2018-Jun-19 13:00N 40°57' E 024°28'0 0.0
2018-Jun-19 12:30N 40°57' E 024°28'0 0.0
2018-Jun-19 12:00N 40°57' E 024°28'0 0.0
2018-Jun-19 11:30N 40°57' E 024°28'0 0.0
2018-Jun-19 11:00N 40°57' E 024°28'0 0.0
2018-Jun-19 10:30N 40°57' E 024°28'0 0.0
2018-Jun-19 10:00N 40°57' E 024°28'0 0.0
2018-Jun-19 09:30N 40°57' E 024°28'0 0.0
2018-Jun-19 09:00N 40°57' E 024°28'0 0.0
2018-Jun-19 08:30N 40°57' E 024°28'0 0.0
2018-Jun-19 08:00N 40°57' E 024°28'0 0.0
2018-Jun-19 07:30N 40°57' E 024°28'0 0.0
2018-Jun-19 07:00N 40°57' E 024°28'0 0.0
2018-Jun-19 06:30N 40°57' E 024°28'0 0.0
2018-Jun-19 06:00N 40°57' E 024°28'0 0.0
2018-Jun-19 05:30N 40°57' E 024°28'0 0.0
2018-Jun-19 05:00N 40°57' E 024°28'0 0.0
2018-Jun-19 04:30N 40°57' E 024°28'0 0.0
2018-Jun-19 04:00N 40°57' E 024°28'0 0.0
2018-Jun-19 03:30N 40°57' E 024°28'0 0.0
2018-Jun-19 03:00N 40°57' E 024°28'0 0.0
2018-Jun-19 02:30N 40°57' E 024°28'0 0.0
2018-Jun-19 02:00N 40°57' E 024°28'0 0.0
2018-Jun-19 01:30N 40°57' E 024°28'0 0.0
2018-Jun-19 01:00N 40°57' E 024°28'0 0.0
2018-Jun-19 00:30N 40°57' E 024°28'0 0.0
2018-Jun-19 00:00N 40°57' E 024°28'0 0.0
2018-Jun-18 23:30N 40°57' E 024°28'0 0.0
2018-Jun-18 23:01N 40°57' E 024°28'0 0.0
2018-Jun-18 22:30N 40°57' E 024°28'0 0.0
2018-Jun-18 22:01N 40°57' E 024°28'0 0.0
2018-Jun-18 21:30N 40°57' E 024°28'0 0.0
2018-Jun-18 21:00N 40°57' E 024°28'0 0.0
2018-Jun-18 20:30N 40°57' E 024°28'0 0.0
2018-Jun-18 20:00N 40°57' E 024°28'0 0.0
2018-Jun-18 19:30N 40°57' E 024°28'0 0.0
2018-Jun-18 19:00N 40°57' E 024°28'0 0.0
2018-Jun-18 18:30N 40°57' E 024°28'0 0.0
2018-Jun-18 18:00N 40°57' E 024°28'0 0.0
2018-Jun-18 17:30N 40°57' E 024°28'0 0.0
2018-Jun-18 17:00N 40°57' E 024°28'0 0.0
2018-Jun-18 16:30N 40°57' E 024°28'0 0.0
2018-Jun-18 16:00N 40°57' E 024°28'0 0.0
2018-Jun-18 15:30N 40°57' E 024°28'0 0.0
2018-Jun-18 15:00N 40°57' E 024°28'0 0.0
2018-Jun-18 14:30N 40°57' E 024°28'0 0.0
2018-Jun-18 14:00N 40°57' E 024°28'0 0.0
2018-Jun-18 13:30N 40°57' E 024°28'0 0.0
2018-Jun-18 13:00N 40°57' E 024°28'0 0.0
2018-Jun-18 12:30N 40°57' E 024°28'0 0.0
2018-Jun-18 12:00N 40°57' E 024°28'0 0.0
2018-Jun-18 11:30N 40°57' E 024°28'0 0.0
2018-Jun-18 10:58N 40°57' E 024°28'0 0.0
2018-Jun-18 10:30N 40°57' E 024°28'0 0.0
2018-Jun-18 10:00N 40°57' E 024°28'0 0.0
2018-Jun-18 09:30N 40°57' E 024°28'0 0.0
2018-Jun-18 09:00N 40°57' E 024°28'0 0.0
2018-Jun-18 08:29N 40°57' E 024°28'0 0.0
2018-Jun-18 08:00N 40°57' E 024°28'0 0.0
2018-Jun-18 07:30N 40°57' E 024°28'0 0.0
2018-Jun-18 07:00N 40°57' E 024°28'0 0.0
2018-Jun-18 06:30N 40°57' E 024°28'0 0.0
2018-Jun-18 06:00N 40°57' E 024°28'0 0.4
2018-Jun-18 05:30N 40°57' E 024°29'1 2.8
2018-Jun-18 05:00N 40°55' E 024°29'0 0.2
2018-Jun-18 04:30N 40°55' E 024°29'0 0.0
2018-Jun-18 04:00N 40°55' E 024°29'0 0.1
2018-Jun-18 03:30N 40°55' E 024°29'0 0.0
2018-Jun-18 02:57N 40°55' E 024°29'0 0.0
2018-Jun-18 02:30N 40°55' E 024°29'0 0.1
2018-Jun-18 01:57N 40°55' E 024°28'0 0.0
2018-Jun-18 01:27N 40°55' E 024°29'0 0.0
2018-Jun-18 00:57N 40°55' E 024°29'0 0.0
2018-Jun-18 00:27N 40°55' E 024°29'0 0.2
2018-Jun-17 23:57N 40°55' E 024°29'0 0.0
2018-Jun-17 23:27N 40°55' E 024°29'0 0.1
2018-Jun-17 23:00N 40°55' E 024°29'0 0.1
2018-Jun-17 22:27N 40°55' E 024°29'0 0.1
2018-Jun-17 21:57N 40°55' E 024°29'0 0.0
2018-Jun-17 21:27N 40°55' E 024°29'0 0.2
2018-Jun-17 20:57N 40°55' E 024°29'0 0.0
2018-Jun-17 20:27N 40°55' E 024°29'0 0.1
2018-Jun-17 19:57N 40°55' E 024°28'0 0.0
2018-Jun-17 19:30N 40°55' E 024°28'0 0.0
2018-Jun-17 18:57N 40°55' E 024°28'0 0.2
2018-Jun-17 18:27N 40°55' E 024°29'0 0.2
2018-Jun-17 17:57N 40°55' E 024°29'0 0.0
2018-Jun-17 17:27N 40°55' E 024°29'0 0.0
2018-Jun-17 16:57N 40°55' E 024°29'0 0.0
2018-Jun-17 16:30N 40°55' E 024°29'0 0.0
2018-Jun-17 15:57N 40°55' E 024°29'0 0.0
2018-Jun-17 15:27N 40°55' E 024°29'0 0.0
2018-Jun-17 14:57N 40°55' E 024°29'0 0.0
2018-Jun-17 14:30N 40°55' E 024°29'0 0.0
2018-Jun-17 13:57N 40°55' E 024°29'0 0.0
2018-Jun-17 13:27N 40°55' E 024°29'0 0.0
2018-Jun-17 13:00N 40°55' E 024°29'0 0.0
2018-Jun-17 12:27N 40°55' E 024°29'0 0.0
2018-Jun-17 12:00N 40°55' E 024°29'0 0.0
2018-Jun-17 11:30N 40°55' E 024°29'0 0.0
2018-Jun-17 10:57N 40°55' E 024°29'0 0.0
2018-Jun-17 10:27N 40°55' E 024°29'0 0.0
2018-Jun-17 09:57N 40°55' E 024°29'0 0.0
2018-Jun-17 09:30N 40°55' E 024°29'0 0.0
2018-Jun-17 09:00N 40°55' E 024°29'0 0.0
2018-Jun-17 08:30N 40°55' E 024°29'0 0.0
2018-Jun-17 08:00N 40°55' E 024°29'0 0.0
2018-Jun-17 07:27N 40°55' E 024°29'0 0.0
2018-Jun-17 07:00N 40°55' E 024°29'0 0.0
2018-Jun-17 06:30N 40°55' E 024°29'0 0.0
2018-Jun-17 06:00N 40°55' E 024°29'0 0.0
2018-Jun-17 05:30N 40°55' E 024°29'0 0.0
2018-Jun-17 05:00N 40°55' E 024°29'0 0.1
2018-Jun-17 04:30N 40°55' E 024°29'0 0.0
2018-Jun-17 04:00N 40°55' E 024°29'0 0.0
2018-Jun-17 03:30N 40°55' E 024°29'0 0.0
2018-Jun-17 02:45N 40°55' E 024°29'0 0.0
2018-Jun-17 02:27N 40°55' E 024°29'0 0.3
2018-Jun-17 02:00N 40°55' E 024°29'0 0.1
2018-Jun-17 01:27N 40°55' E 024°29'0 0.0
2018-Jun-17 01:00N 40°55' E 024°29'0 0.0
2018-Jun-17 00:27N 40°55' E 024°29'0 0.1
2018-Jun-16 23:57N 40°55' E 024°29'0 0.0
2018-Jun-16 23:27N 40°55' E 024°29'0 0.1
2018-Jun-16 22:51N 40°55' E 024°29'0 0.0
2018-Jun-16 22:27N 40°55' E 024°29'0 0.0
2018-Jun-16 22:00N 40°55' E 024°29'0 0.1
2018-Jun-16 21:27N 40°55' E 024°29'0 0.0
2018-Jun-16 20:54N 40°55' E 024°29'0 0.1
2018-Jun-16 20:30N 40°55' E 024°29'0 0.0
2018-Jun-16 20:00N 40°55' E 024°29'0 0.1
2018-Jun-16 19:27N 40°55' E 024°29'0 0.0
2018-Jun-16 18:57N 40°55' E 024°29'0 0.0
2018-Jun-16 18:27N 40°55' E 024°29'0 0.0
2018-Jun-16 17:57N 40°55' E 024°29'0 0.0
2018-Jun-16 17:30N 40°55' E 024°29'0 0.1
2018-Jun-16 17:00N 40°55' E 024°29'0 0.2
2018-Jun-16 16:27N 40°55' E 024°29'0 0.1
2018-Jun-16 15:57N 40°55' E 024°29'0 0.0
2018-Jun-16 15:30N 40°55' E 024°29'0 0.1
2018-Jun-16 15:00N 40°55' E 024°29'0 0.1
2018-Jun-16 14:30N 40°55' E 024°29'0 0.0
2018-Jun-16 14:00N 40°55' E 024°29'0 0.1
2018-Jun-16 13:27N 40°55' E 024°29'0 0.0
2018-Jun-16 13:00N 40°55' E 024°29'0 0.0
2018-Jun-16 12:27N 40°55' E 024°29'0 0.0
2018-Jun-16 11:57N 40°55' E 024°29'0 0.0
2018-Jun-16 11:27N 40°55' E 024°29'0 0.1
2018-Jun-16 11:00N 40°55' E 024°29'0 0.0
2018-Jun-16 10:30N 40°55' E 024°29'0 0.2
2018-Jun-16 09:58N 40°55' E 024°29'2 3.7
2018-Jun-16 09:30N 40°54' E 024°28'4 8.2
2018-Jun-16 09:00N 40°50' E 024°27'4 8.0
2018-Jun-16 08:30N 40°46' E 024°26'4 7.7
2018-Jun-16 08:00N 40°42' E 024°25'4 7.5
2018-Jun-16 07:30N 40°39' E 024°26'4 7.5
2018-Jun-16 07:00N 40°35' E 024°29'4 7.6
2018-Jun-16 06:30N 40°33' E 024°33'4 8.4
2018-Jun-16 06:00N 40°31' E 024°38'4 8.7
2018-Jun-16 05:30N 40°29' E 024°43'4 8.5
2018-Jun-16 05:00N 40°27' E 024°48'4 8.6
2018-Jun-16 04:30N 40°25' E 024°53'5 8.6
2018-Jun-16 03:57N 40°23' E 024°58'4 8.8
2018-Jun-16 03:29N 40°21' E 025°03'5 9.1
2018-Jun-16 02:59N 40°18' E 025°08'5 9.2
2018-Jun-16 02:29N 40°16' E 025°13'5 9.6
2018-Jun-16 01:57N 40°13' E 025°19'  
Track history (hours):
 
Tides and Currents Weather Stations Pressure Air Temp Water Temp Dewpoint Dewpoint Depression Visibility Wind Speed Wind Dir Waves Ship Positions

Orel 3

Last reported at 2018-Jun-24 22:38 UTC. Time now 2018-Jun-25 01:40 UTC.
Position N 44°39' E 029°24'.

Length 108 m; draft 3.4 m.

Type: Cargo ship. MMSI: 272057000.

Date/timePositionNaut miles runAvg speedWind from/ knotsBaromVisibWave heightAir tempDewpointWater temp
2018-Jun-24 22:38N 44°39' E 029°24'3 8.0
2018-Jun-24 22:16N 44°38' E 029°21'2 7.8
2018-Jun-24 22:00N 44°36' E 029°18'4 7.6
2018-Jun-24 21:30N 44°34' E 029°15'4 7.8
2018-Jun-24 21:00N 44°30' E 029°12'4 8.0
2018-Jun-24 20:30N 44°27' E 029°09'4 8.4
2018-Jun-24 20:00N 44°23' E 029°08'4 8.4
2018-Jun-24 19:30N 44°19' E 029°06'4 8.5
2018-Jun-24 19:00N 44°15' E 029°04'4 8.3
2018-Jun-24 18:30N 44°11' E 029°03'4 8.1
2018-Jun-24 18:00N 44°07' E 029°01'4 8.0
2018-Jun-24 17:30N 44°03' E 028°59'4 8.1
2018-Jun-24 17:00N 43°59' E 028°58'4 8.0
2018-Jun-24 16:30N 43°55' E 028°56'4 7.9
2018-Jun-24 16:00N 43°51' E 028°55'4 8.0
2018-Jun-24 15:30N 43°47' E 028°53'4 7.8
2018-Jun-24 14:59N 43°44' E 028°52'  
2018-Jun-22 00:19N 40°01' E 025°49'11 8.6
2018-Jun-21 23:04N 40°06' E 025°36'1 8.7
2018-Jun-21 23:00N 40°06' E 025°36'4 8.1
2018-Jun-21 22:30N 40°08' E 025°31'4 7.5
2018-Jun-21 22:00N 40°10' E 025°27'4 7.2
2018-Jun-21 21:29N 40°12' E 025°23'3 7.0
2018-Jun-21 21:00N 40°13' E 025°19'3 6.9
2018-Jun-21 20:30N 40°15' E 025°15'4 7.1
2018-Jun-21 20:00N 40°17' E 025°11'4 7.5
2018-Jun-21 19:30N 40°19' E 025°07'4 7.7
2018-Jun-21 19:00N 40°21' E 025°02'5 8.0
2018-Jun-21 18:23N 40°23' E 024°57'3 8.0
2018-Jun-21 18:00N 40°25' E 024°53'4 8.3
2018-Jun-21 17:30N 40°27' E 024°49'4 8.1
2018-Jun-21 17:00N 40°29' E 024°44'4 7.8
2018-Jun-21 16:30N 40°31' E 024°39'4 7.6
2018-Jun-21 16:00N 40°33' E 024°35'4 7.8
2018-Jun-21 15:30N 40°34' E 024°31'4 7.4
2018-Jun-21 15:00N 40°38' E 024°28'4 7.3
2018-Jun-21 14:30N 40°41' E 024°25'3 7.0
2018-Jun-21 14:00N 40°44' E 024°25'4 7.4
2018-Jun-21 13:30N 40°48' E 024°26'4 7.4
2018-Jun-21 13:00N 40°51' E 024°28'3 6.5
2018-Jun-21 12:30N 40°54' E 024°29'2 4.4
2018-Jun-21 12:00N 40°57' E 024°29'0 0.4
2018-Jun-21 11:30N 40°57' E 024°28'0 0.0
2018-Jun-21 11:00N 40°57' E 024°28'0 0.0
2018-Jun-21 10:30N 40°57' E 024°28'0 0.0
2018-Jun-21 10:00N 40°57' E 024°28'0 0.0
2018-Jun-21 09:30N 40°57' E 024°28'0 0.0
2018-Jun-21 09:00N 40°57' E 024°28'0 0.0
2018-Jun-21 08:30N 40°57' E 024°28'0 0.0
2018-Jun-21 08:00N 40°57' E 024°28'0 0.0
2018-Jun-21 07:30N 40°57' E 024°28'0 0.0
2018-Jun-21 07:00N 40°57' E 024°28'0 0.0
2018-Jun-21 06:30N 40°57' E 024°28'0 0.0
2018-Jun-21 06:00N 40°57' E 024°28'0 0.0
2018-Jun-21 05:30N 40°57' E 024°28'0 0.0
2018-Jun-21 05:00N 40°57' E 024°28'0 0.0
2018-Jun-21 04:30N 40°57' E 024°28'0 0.0
2018-Jun-21 04:00N 40°57' E 024°28'0 0.0
2018-Jun-21 03:30N 40°57' E 024°28'0 0.0
2018-Jun-21 03:00N 40°57' E 024°28'0 0.0
2018-Jun-21 02:30N 40°57' E 024°28'0 0.0
2018-Jun-21 02:00N 40°57' E 024°28'0 0.0
2018-Jun-21 01:29N 40°57' E 024°28'0 0.0
2018-Jun-21 01:00N 40°57' E 024°28'0 0.0
2018-Jun-21 00:30N 40°57' E 024°28'0 0.0
2018-Jun-21 00:00N 40°57' E 024°28'0 0.0
2018-Jun-20 23:30N 40°57' E 024°28'0 0.0
2018-Jun-20 23:00N 40°57' E 024°28'0 0.0
2018-Jun-20 22:29N 40°57' E 024°28'0 0.0
2018-Jun-20 22:00N 40°57' E 024°28'0 0.0
2018-Jun-20 21:30N 40°57' E 024°28'0 0.0
2018-Jun-20 21:00N 40°57' E 024°28'0 0.0
2018-Jun-20 20:30N 40°57' E 024°28'0 0.0
2018-Jun-20 20:00N 40°57' E 024°28'0 0.0
2018-Jun-20 19:30N 40°57' E 024°28'0 0.0
2018-Jun-20 19:00N 40°57' E 024°28'0 0.0
2018-Jun-20 18:30N 40°57' E 024°28'0 0.0
2018-Jun-20 18:00N 40°57' E 024°28'0 0.0
2018-Jun-20 17:30N 40°57' E 024°28'0 0.0
2018-Jun-20 17:00N 40°57' E 024°28'0 0.0
2018-Jun-20 16:29N 40°57' E 024°28'0 0.0
2018-Jun-20 16:00N 40°57' E 024°28'0 0.0
2018-Jun-20 15:30N 40°57' E 024°28'0 0.0
2018-Jun-20 15:00N 40°57' E 024°28'0 0.0
2018-Jun-20 14:30N 40°57' E 024°28'0 0.0
2018-Jun-20 14:00N 40°57' E 024°28'0 0.0
2018-Jun-20 13:30N 40°57' E 024°28'0 0.0
2018-Jun-20 13:00N 40°57' E 024°28'0 0.0
2018-Jun-20 12:30N 40°57' E 024°28'0 0.0
2018-Jun-20 12:00N 40°57' E 024°28'0 0.0
2018-Jun-20 11:30N 40°57' E 024°28'0 0.0
2018-Jun-20 11:00N 40°57' E 024°28'0 0.0
2018-Jun-20 10:30N 40°57' E 024°28'0 0.0
2018-Jun-20 10:00N 40°57' E 024°28'0 0.0
2018-Jun-20 09:30N 40°57' E 024°28'0 0.0
2018-Jun-20 09:00N 40°57' E 024°28'0 0.0
2018-Jun-20 08:30N 40°57' E 024°28'0 0.0
2018-Jun-20 08:00N 40°57' E 024°28'0 0.0
2018-Jun-20 07:30N 40°57' E 024°28'0 0.0
2018-Jun-20 07:00N 40°57' E 024°28'0 0.0
2018-Jun-20 06:30N 40°57' E 024°28'0 0.0
2018-Jun-20 06:00N 40°57' E 024°28'0 0.0
2018-Jun-20 05:30N 40°57' E 024°28'0 0.0
2018-Jun-20 05:00N 40°57' E 024°28'0 0.0
2018-Jun-20 04:30N 40°57' E 024°28'0 0.0
2018-Jun-20 04:00N 40°57' E 024°28'0 0.0
2018-Jun-20 03:30N 40°57' E 024°28'0 0.0
2018-Jun-20 03:00N 40°57' E 024°28'0 0.0
2018-Jun-20 02:30N 40°57' E 024°28'0 0.0
2018-Jun-20 02:00N 40°57' E 024°28'0 0.0
2018-Jun-20 01:30N 40°57' E 024°28'0 0.0
2018-Jun-20 01:00N 40°57' E 024°28'0 0.0
2018-Jun-20 00:30N 40°57' E 024°28'0 0.0
2018-Jun-20 00:00N 40°57' E 024°28'0 0.0
2018-Jun-19 23:30N 40°57' E 024°28'0 0.0
2018-Jun-19 23:00N 40°57' E 024°28'0 0.0
2018-Jun-19 22:30N 40°57' E 024°28'0 0.0
2018-Jun-19 22:00N 40°57' E 024°28'0 0.0
2018-Jun-19 21:30N 40°57' E 024°28'0 0.0
2018-Jun-19 21:00N 40°57' E 024°28'0 0.0
2018-Jun-19 20:30N 40°57' E 024°28'0 0.0
2018-Jun-19 20:00N 40°57' E 024°28'0 0.0
2018-Jun-19 19:30N 40°57' E 024°28'0 0.0
2018-Jun-19 19:00N 40°57' E 024°28'0 0.0
2018-Jun-19 18:30N 40°57' E 024°28'0 0.0
2018-Jun-19 18:00N 40°57' E 024°28'0 0.0
2018-Jun-19 17:30N 40°57' E 024°28'0 0.0
2018-Jun-19 17:00N 40°57' E 024°28'0 0.0
2018-Jun-19 16:30N 40°57' E 024°28'0 0.0
2018-Jun-19 16:00N 40°57' E 024°28'0 0.0
2018-Jun-19 15:30N 40°57' E 024°28'0 0.0
2018-Jun-19 15:00N 40°57' E 024°28'0 0.0
2018-Jun-19 14:30N 40°57' E 024°28'0 0.0
2018-Jun-19 14:00N 40°57' E 024°28'0 0.0
2018-Jun-19 13:30N 40°57' E 024°28'0 0.0
2018-Jun-19 13:00N 40°57' E 024°28'0 0.0
2018-Jun-19 12:30N 40°57' E 024°28'0 0.0
2018-Jun-19 12:00N 40°57' E 024°28'0 0.0
2018-Jun-19 11:30N 40°57' E 024°28'0 0.0
2018-Jun-19 11:00N 40°57' E 024°28'0 0.0
2018-Jun-19 10:30N 40°57' E 024°28'0 0.0
2018-Jun-19 10:00N 40°57' E 024°28'0 0.0
2018-Jun-19 09:30N 40°57' E 024°28'0 0.0
2018-Jun-19 09:00N 40°57' E 024°28'0 0.0
2018-Jun-19 08:30N 40°57' E 024°28'0 0.0
2018-Jun-19 08:00N 40°57' E 024°28'0 0.0
2018-Jun-19 07:30N 40°57' E 024°28'0 0.0
2018-Jun-19 07:00N 40°57' E 024°28'0 0.0
2018-Jun-19 06:30N 40°57' E 024°28'0 0.0
2018-Jun-19 06:00N 40°57' E 024°28'0 0.0
2018-Jun-19 05:30N 40°57' E 024°28'0 0.0
2018-Jun-19 05:00N 40°57' E 024°28'0 0.0
2018-Jun-19 04:30N 40°57' E 024°28'0 0.0
2018-Jun-19 04:00N 40°57' E 024°28'0 0.0
2018-Jun-19 03:30N 40°57' E 024°28'0 0.0
2018-Jun-19 03:00N 40°57' E 024°28'0 0.0
2018-Jun-19 02:30N 40°57' E 024°28'0 0.0
2018-Jun-19 02:00N 40°57' E 024°28'0 0.0
2018-Jun-19 01:30N 40°57' E 024°28'0 0.0
2018-Jun-19 01:00N 40°57' E 024°28'0 0.0
2018-Jun-19 00:30N 40°57' E 024°28'0 0.0
2018-Jun-19 00:00N 40°57' E 024°28'0 0.0
2018-Jun-18 23:30N 40°57' E 024°28'0 0.0
2018-Jun-18 23:01N 40°57' E 024°28'0 0.0
2018-Jun-18 22:30N 40°57' E 024°28'0 0.0
2018-Jun-18 22:01N 40°57' E 024°28'0 0.0
2018-Jun-18 21:30N 40°57' E 024°28'0 0.0
2018-Jun-18 21:00N 40°57' E 024°28'0 0.0
2018-Jun-18 20:30N 40°57' E 024°28'0 0.0
2018-Jun-18 20:00N 40°57' E 024°28'0 0.0
2018-Jun-18 19:30N 40°57' E 024°28'0 0.0
2018-Jun-18 19:00N 40°57' E 024°28'0 0.0
2018-Jun-18 18:30N 40°57' E 024°28'0 0.0
2018-Jun-18 18:00N 40°57' E 024°28'0 0.0
2018-Jun-18 17:30N 40°57' E 024°28'0 0.0
2018-Jun-18 17:00N 40°57' E 024°28'0 0.0
2018-Jun-18 16:30N 40°57' E 024°28'0 0.0
2018-Jun-18 16:00N 40°57' E 024°28'0 0.0
2018-Jun-18 15:30N 40°57' E 024°28'0 0.0
2018-Jun-18 15:00N 40°57' E 024°28'0 0.0
2018-Jun-18 14:30N 40°57' E 024°28'0 0.0
2018-Jun-18 14:00N 40°57' E 024°28'0 0.0
2018-Jun-18 13:30N 40°57' E 024°28'0 0.0
2018-Jun-18 13:00N 40°57' E 024°28'0 0.0
2018-Jun-18 12:30N 40°57' E 024°28'0 0.0
2018-Jun-18 12:00N 40°57' E 024°28'0 0.0
2018-Jun-18 11:30N 40°57' E 024°28'0 0.0
2018-Jun-18 10:58N 40°57' E 024°28'0 0.0
2018-Jun-18 10:30N 40°57' E 024°28'0 0.0
2018-Jun-18 10:00N 40°57' E 024°28'0 0.0
2018-Jun-18 09:30N 40°57' E 024°28'0 0.0
2018-Jun-18 09:00N 40°57' E 024°28'0 0.0
2018-Jun-18 08:29N 40°57' E 024°28'0 0.0
2018-Jun-18 08:00N 40°57' E 024°28'0 0.0
2018-Jun-18 07:30N 40°57' E 024°28'0 0.0
2018-Jun-18 07:00N 40°57' E 024°28'0 0.0
2018-Jun-18 06:30N 40°57' E 024°28'0 0.0
2018-Jun-18 06:00N 40°57' E 024°28'0 0.4
2018-Jun-18 05:30N 40°57' E 024°29'1 2.8
2018-Jun-18 05:00N 40°55' E 024°29'0 0.2
2018-Jun-18 04:30N 40°55' E 024°29'0 0.0
2018-Jun-18 04:00N 40°55' E 024°29'0 0.1
2018-Jun-18 03:30N 40°55' E 024°29'0 0.0
2018-Jun-18 02:57N 40°55' E 024°29'0 0.0
2018-Jun-18 02:30N 40°55' E 024°29'0 0.1
2018-Jun-18 01:57N 40°55' E 024°28'0 0.0
2018-Jun-18 01:27N 40°55' E 024°29'0 0.0
2018-Jun-18 00:57N 40°55' E 024°29'0 0.0
2018-Jun-18 00:27N 40°55' E 024°29'0 0.2
2018-Jun-17 23:57N 40°55' E 024°29'0 0.0
2018-Jun-17 23:27N 40°55' E 024°29'0 0.1
2018-Jun-17 23:00N 40°55' E 024°29'0 0.1
2018-Jun-17 22:27N 40°55' E 024°29'0 0.1
2018-Jun-17 21:57N 40°55' E 024°29'0 0.0
2018-Jun-17 21:27N 40°55' E 024°29'0 0.2
2018-Jun-17 20:57N 40°55' E 024°29'0 0.0
2018-Jun-17 20:27N 40°55' E 024°29'0 0.1
2018-Jun-17 19:57N 40°55' E 024°28'0 0.0
2018-Jun-17 19:30N 40°55' E 024°28'0 0.0
2018-Jun-17 18:57N 40°55' E 024°28'0 0.2
2018-Jun-17 18:27N 40°55' E 024°29'0 0.2
2018-Jun-17 17:57N 40°55' E 024°29'0 0.0
2018-Jun-17 17:27N 40°55' E 024°29'0 0.0
2018-Jun-17 16:57N 40°55' E 024°29'0 0.0
2018-Jun-17 16:30N 40°55' E 024°29'0 0.0
2018-Jun-17 15:57N 40°55' E 024°29'0 0.0
2018-Jun-17 15:27N 40°55' E 024°29'0 0.0
2018-Jun-17 14:57N 40°55' E 024°29'0 0.0
2018-Jun-17 14:30N 40°55' E 024°29'0 0.0
2018-Jun-17 13:57N 40°55' E 024°29'0 0.0
2018-Jun-17 13:27N 40°55' E 024°29'0 0.0
2018-Jun-17 13:00N 40°55' E 024°29'0 0.0
2018-Jun-17 12:27N 40°55' E 024°29'0 0.0
2018-Jun-17 12:00N 40°55' E 024°29'0 0.0
2018-Jun-17 11:30N 40°55' E 024°29'0 0.0
2018-Jun-17 10:57N 40°55' E 024°29'0 0.0
2018-Jun-17 10:27N 40°55' E 024°29'0 0.0
2018-Jun-17 09:57N 40°55' E 024°29'0 0.0
2018-Jun-17 09:30N 40°55' E 024°29'0 0.0
2018-Jun-17 09:00N 40°55' E 024°29'0 0.0
2018-Jun-17 08:30N 40°55' E 024°29'0 0.0
2018-Jun-17 08:00N 40°55' E 024°29'0 0.0
2018-Jun-17 07:27N 40°55' E 024°29'0 0.0
2018-Jun-17 07:00N 40°55' E 024°29'0 0.0
2018-Jun-17 06:30N 40°55' E 024°29'0 0.0
2018-Jun-17 06:00N 40°55' E 024°29'0 0.0
2018-Jun-17 05:30N 40°55' E 024°29'0 0.0
2018-Jun-17 05:00N 40°55' E 024°29'0 0.1
2018-Jun-17 04:30N 40°55' E 024°29'0 0.0
2018-Jun-17 04:00N 40°55' E 024°29'0 0.0
2018-Jun-17 03:30N 40°55' E 024°29'0 0.0
2018-Jun-17 02:45N 40°55' E 024°29'0 0.0
2018-Jun-17 02:27N 40°55' E 024°29'0 0.3
2018-Jun-17 02:00N 40°55' E 024°29'0 0.1
2018-Jun-17 01:27N 40°55' E 024°29'0 0.0
2018-Jun-17 01:00N 40°55' E 024°29'0 0.0
2018-Jun-17 00:27N 40°55' E 024°29'0 0.1
2018-Jun-16 23:57N 40°55' E 024°29'0 0.0
2018-Jun-16 23:27N 40°55' E 024°29'0 0.1
2018-Jun-16 22:51N 40°55' E 024°29'0 0.0
2018-Jun-16 22:27N 40°55' E 024°29'0 0.0
2018-Jun-16 22:00N 40°55' E 024°29'0 0.1
2018-Jun-16 21:27N 40°55' E 024°29'0 0.0
2018-Jun-16 20:54N 40°55' E 024°29'0 0.1
2018-Jun-16 20:30N 40°55' E 024°29'0 0.0
2018-Jun-16 20:00N 40°55' E 024°29'0 0.1
2018-Jun-16 19:27N 40°55' E 024°29'0 0.0
2018-Jun-16 18:57N 40°55' E 024°29'0 0.0
2018-Jun-16 18:27N 40°55' E 024°29'0 0.0
2018-Jun-16 17:57N 40°55' E 024°29'0 0.0
2018-Jun-16 17:30N 40°55' E 024°29'0 0.1
2018-Jun-16 17:00N 40°55' E 024°29'0 0.2
2018-Jun-16 16:27N 40°55' E 024°29'0 0.1
2018-Jun-16 15:57N 40°55' E 024°29'0 0.0
2018-Jun-16 15:30N 40°55' E 024°29'0 0.1
2018-Jun-16 15:00N 40°55' E 024°29'0 0.1
2018-Jun-16 14:30N 40°55' E 024°29'0 0.0
2018-Jun-16 14:00N 40°55' E 024°29'0 0.1
2018-Jun-16 13:27N 40°55' E 024°29'0 0.0
2018-Jun-16 13:00N 40°55' E 024°29'0 0.0
2018-Jun-16 12:27N 40°55' E 024°29'0 0.0
2018-Jun-16 11:57N 40°55' E 024°29'0 0.0
2018-Jun-16 11:27N 40°55' E 024°29'0 0.1
2018-Jun-16 11:00N 40°55' E 024°29'0 0.0
2018-Jun-16 10:30N 40°55' E 024°29'0 0.2
2018-Jun-16 09:58N 40°55' E 024°29'2 3.7
2018-Jun-16 09:30N 40°54' E 024°28'4 8.2
2018-Jun-16 09:00N 40°50' E 024°27'4 8.0
2018-Jun-16 08:30N 40°46' E 024°26'4 7.7
2018-Jun-16 08:00N 40°42' E 024°25'4 7.5
2018-Jun-16 07:30N 40°39' E 024°26'4 7.5
2018-Jun-16 07:00N 40°35' E 024°29'4 7.6
2018-Jun-16 06:30N 40°33' E 024°33'4 8.4
2018-Jun-16 06:00N 40°31' E 024°38'4 8.7
2018-Jun-16 05:30N 40°29' E 024°43'4 8.5
2018-Jun-16 05:00N 40°27' E 024°48'4 8.6
2018-Jun-16 04:30N 40°25' E 024°53'5 8.6
2018-Jun-16 03:57N 40°23' E 024°58'4 8.8
2018-Jun-16 03:29N 40°21' E 025°03'5 9.1
2018-Jun-16 02:59N 40°18' E 025°08'5 9.2
2018-Jun-16 02:29N 40°16' E 025°13'5 9.6
2018-Jun-16 01:57N 40°13' E 025°19'  

Dump ship's entire track history